Lipscomb, TX (79056)

11:10 AM CST on December 26, 2014 (GMT -0600)
Zender Laundromat | Change Station
CLOSE
Current Station
Personal Weather Station
Location: Booker, TX
Elevation: 2844 ft
Nearby Weather Stations

Elev 2844 ft 36.45 °N, 100.54 °W | Updated 5 seconds ago

Overcast
Overcast
31.5 °F
Feels Like 24 °F
N
8.3
Wind Variable Wind from North
Gusts 13.6 mph

Today
High -- | Low -- °F
--% Chance of Precip.
Yesterday
High -- | Low -- °F
Precip. -- in
7:50 AM 5:32 PM
Waxing Crescent, 27% visible
Pressure 29.95 in
Visibility -9999.0 miles
Clouds Overcast 1400 ft
Windchill 24 °F
Dew Point 31 °F
Humidity 99%
Rainfall 0.00 in
Snow Depth Not available.
UV 1 out of 12
Pollen 6.20 out of 12
Air Quality Not available.
Flu Activity Not available.
METAR KHHF 261655Z AUTO 36008KT OVC014 02/M01 A2995 RMK AO2 T00191013 PWINO

More Conditions Fewer Conditions

Pressure 29.95 in
Visibility -9999.0 miles
Clouds Overcast 1400 ft
Windchill 24 °F
Dew Point 31 °F
Humidity 99%
Rainfall 0.00 in
Snow Depth Not available.
UV 1 out of 12
Pollen 6.20 out of 12
Air Quality Not available.
Flu Activity Not available.
METAR KHHF 261655Z AUTO 36008KT OVC014 02/M01 A2995 RMK AO2 T00191013 PWINO

More Conditions Fewer Conditions

10-Day Weather Forecast

Almanac

Astronomy

Dec. 26, 2014 Rise Set
Actual Time
Civil Twilight
Nautical Twilight
Astronomical Twilight
Moon
Length of Visible Light
Length of Day
Tomorrow will be .
, % of the Moon is Illuminated

Today's Extremes

State Highs State Lows

Community

WunderPhotos

Upload Photos

1,780,643 photos uploaded!

WunderBlogs® & News

Nearby

Air Quality

  Air Quality AQ Index Pollutant
Not available.

Snow Depth

Station Depth Elevation

Earthquake Activity

City Distance Mag. Time & Date
Minimum magnitude displayed is 2.5.

Coastal Water Temperatures

Place Temperature

Nearby Weather Stations